createdAt,value
2023-05-05T00:00:14.073Z,4.63
2023-05-05T00:02:43.391Z,5.15
2023-05-05T00:05:10.448Z,5.20
2023-05-05T00:07:37.333Z,5.65
2023-05-05T00:10:05.814Z,5.65
2023-05-05T00:12:33.616Z,5.40
2023-05-05T00:15:02.638Z,5.28
2023-05-05T00:17:30.850Z,5.43
2023-05-05T00:19:57.434Z,5.38
2023-05-05T00:22:24.075Z,5.43
2023-05-05T00:24:55.568Z,5.72
2023-05-05T00:27:23.320Z,5.60
2023-05-05T00:29:50.836Z,5.25
2023-05-05T00:32:19.546Z,5.18
2023-05-05T00:34:46.593Z,5.40
2023-05-05T00:37:16.837Z,5.13
2023-05-05T00:42:11.575Z,5.38
2023-05-05T00:44:40.663Z,5.22
2023-05-05T00:47:16.786Z,5.28
2023-05-05T00:49:43.666Z,5.03
2023-05-05T00:52:11.703Z,5.60
2023-05-05T00:54:44.341Z,4.75
2023-05-05T00:57:11.562Z,4.90
2023-05-05T00:59:39.149Z,4.82
2023-05-05T01:02:06.321Z,4.43
2023-05-05T01:04:34.254Z,4.72
2023-05-05T01:07:52.621Z,5.03
2023-05-05T01:10:43.029Z,4.72
2023-05-05T01:13:32.849Z,4.75
2023-05-05T01:16:12.064Z,4.43
2023-05-05T01:18:52.806Z,4.40
2023-05-05T01:21:47.693Z,4.43
2023-05-05T01:24:33.111Z,4.20
2023-05-05T01:27:27.304Z,4.47
2023-05-05T01:30:32.472Z,4.50
2023-05-05T01:33:05.568Z,4.40
2023-05-05T01:35:45.879Z,4.70
2023-05-05T01:38:19.197Z,4.50
2023-05-05T01:40:52.132Z,4.30
2023-05-05T01:43:21.720Z,4.55
2023-05-05T01:45:50.664Z,4.40
2023-05-05T01:48:19.507Z,4.47
2023-05-05T01:50:48.171Z,4.72
2023-05-05T01:53:18.233Z,4.10
2023-05-05T01:55:47.179Z,4.78
2023-05-05T01:58:16.529Z,4.70
2023-05-05T02:00:44.250Z,4.20
2023-05-05T02:03:16.274Z,4.30
2023-05-05T02:05:44.745Z,4.50
2023-05-05T02:08:12.226Z,4.47
2023-05-05T02:10:45.730Z,4.38
2023-05-05T02:13:15.603Z,4.93
2023-05-05T02:15:46.405Z,4.60
2023-05-05T02:20:55.347Z,5.10
2023-05-05T02:23:22.212Z,4.97
2023-05-05T02:25:57.994Z,5.53
2023-05-05T02:28:41.906Z,5.57
2023-05-05T02:31:11.125Z,5.78
2023-05-05T02:33:39.342Z,5.68
2023-05-05T02:36:26.280Z,5.82
2023-05-05T02:38:58.332Z,5.57
2023-05-05T02:41:30.804Z,5.85
2023-05-05T02:44:00.940Z,5.85
2023-05-05T02:46:33.025Z,6.55
2023-05-05T02:49:04.447Z,5.97
2023-05-05T02:51:33.721Z,5.90
2023-05-05T02:54:01.805Z,5.80
2023-05-05T02:56:42.346Z,5.55
2023-05-05T02:59:26.682Z,6.38
2023-05-05T03:02:20.066Z,6.35
2023-05-05T03:05:21.757Z,6.22
2023-05-05T03:08:09.809Z,6.35
2023-05-05T03:10:44.244Z,6.57
2023-05-05T03:13:14.421Z,5.88
2023-05-05T03:15:46.802Z,6.88
2023-05-05T03:18:18.101Z,6.28
2023-05-05T03:20:46.485Z,6.38
2023-05-05T03:23:20.409Z,6.30
2023-05-05T03:25:48.848Z,6.50
2023-05-05T03:28:18.423Z,5.70
2023-05-05T03:30:48.980Z,6.13
2023-05-05T03:33:19.828Z,6.22
2023-05-05T03:35:50.279Z,5.68
2023-05-05T03:38:17.064Z,6.00
2023-05-05T03:40:44.846Z,5.57
2023-05-05T03:43:11.829Z,6.13
2023-05-05T03:45:46.115Z,5.65
2023-05-05T03:48:13.650Z,6.03
2023-05-05T03:50:40.669Z,5.90
2023-05-05T03:53:07.095Z,5.72
2023-05-05T03:55:37.969Z,5.70
2023-05-05T03:58:04.455Z,5.85
2023-05-05T04:00:31.413Z,6.22
2023-05-05T04:02:58.085Z,5.72
2023-05-05T04:05:25.733Z,5.32
2023-05-05T04:07:52.874Z,5.90
2023-05-05T04:10:20.644Z,6.32
2023-05-05T04:12:47.632Z,6.18
2023-05-05T04:15:14.378Z,6.22
2023-05-05T04:17:41.126Z,6.80
2023-05-05T04:20:12.514Z,6.15
2023-05-05T04:22:40.890Z,6.50
2023-05-05T04:25:07.795Z,6.07
2023-05-05T04:27:40.286Z,6.30
2023-05-05T04:30:10.257Z,6.20
2023-05-05T04:32:41.992Z,6.67
2023-05-05T04:35:11.971Z,6.10
2023-05-05T04:37:40.226Z,6.85
2023-05-05T04:40:09.845Z,6.78
2023-05-05T04:42:39.560Z,7.07
2023-05-05T04:45:09.923Z,6.88
2023-05-05T04:50:03.997Z,7.03
2023-05-05T04:52:38.286Z,6.78
2023-05-05T04:55:12.594Z,6.63
2023-05-05T04:57:41.981Z,7.07
2023-05-05T05:00:12.278Z,6.70
2023-05-05T05:02:39.486Z,7.07
2023-05-05T05:05:08.066Z,7.75
2023-05-05T05:07:42.495Z,7.68
2023-05-05T05:10:20.593Z,8.30
2023-05-05T05:12:57.785Z,7.30
2023-05-05T05:15:30.338Z,7.63
2023-05-05T05:17:57.657Z,7.43
2023-05-05T05:20:25.816Z,6.93
2023-05-05T05:22:52.702Z,7.57
2023-05-05T05:25:21.174Z,7.47
2023-05-05T05:30:39.010Z,7.75
2023-05-05T05:33:07.735Z,7.40
2023-05-05T05:35:35.167Z,7.20
2023-05-05T05:38:05.076Z,7.82
2023-05-05T05:40:49.880Z,7.28
2023-05-05T05:43:18.597Z,7.00
2023-05-05T05:45:48.307Z,7.72
2023-05-05T05:51:17.285Z,7.05
2023-05-05T05:53:49.913Z,7.47
2023-05-05T05:59:01.916Z,7.90
2023-05-05T06:01:33.846Z,8.30
2023-05-05T06:04:02.479Z,7.88
2023-05-05T06:06:29.441Z,8.25
2023-05-05T06:09:05.158Z,8.15
2023-05-05T06:11:33.272Z,9.57
2023-05-05T06:14:00.547Z,8.90
2023-05-05T06:16:27.556Z,9.50
2023-05-05T06:18:57.579Z,9.82
2023-05-05T06:21:37.961Z,10.10
2023-05-05T06:24:07.193Z,9.57
2023-05-05T06:26:34.184Z,9.95
2023-05-05T06:29:01.579Z,9.98
2023-05-05T06:31:28.745Z,10.52
2023-05-05T06:33:58.453Z,10.50
2023-05-05T06:36:29.824Z,10.60
2023-05-05T06:38:59.219Z,10.50
2023-05-05T06:41:28.084Z,9.90
2023-05-05T06:43:56.301Z,9.35
2023-05-05T06:46:23.542Z,9.40
2023-05-05T06:48:52.079Z,8.13
2023-05-05T06:51:26.598Z,8.30
2023-05-05T06:53:55.499Z,7.60
2023-05-05T06:56:28.776Z,7.63
2023-05-05T06:59:16.646Z,7.47
2023-05-05T07:04:42.612Z,7.97
2023-05-05T07:07:10.317Z,8.35
2023-05-05T07:09:48.308Z,8.27
2023-05-05T07:12:18.832Z,9.02
2023-05-05T07:14:52.806Z,9.32
2023-05-05T07:17:24.146Z,8.60
2023-05-05T07:25:33.599Z,8.93
2023-05-05T07:28:30.358Z,8.52
2023-05-05T07:31:02.518Z,8.10
2023-05-05T07:33:31.191Z,8.23
2023-05-05T07:38:58.951Z,8.68
2023-05-05T07:44:18.522Z,8.02
2023-05-05T07:46:48.081Z,8.45
2023-05-05T07:49:20.019Z,8.00
2023-05-05T07:51:56.659Z,8.50
2023-05-05T07:57:26.166Z,7.47
2023-05-05T07:59:53.486Z,7.93
2023-05-05T08:02:26.668Z,7.72
2023-05-05T08:04:58.076Z,7.25
2023-05-05T08:07:29.377Z,6.88
2023-05-05T08:10:07.841Z,6.07
2023-05-05T08:12:40.634Z,6.47
2023-05-05T08:15:14.221Z,6.50
2023-05-05T08:17:51.834Z,6.93
2023-05-05T08:23:13.779Z,6.63
2023-05-05T08:25:47.782Z,6.40
2023-05-05T08:28:17.003Z,6.10
2023-05-05T08:31:10.077Z,6.40
2023-05-05T08:39:17.370Z,5.47
2023-05-05T08:41:51.122Z,5.40
2023-05-05T08:44:53.775Z,6.05
2023-05-05T08:47:39.048Z,6.30
2023-05-05T08:50:18.818Z,5.78
2023-05-05T08:52:56.357Z,5.88
2023-05-05T08:55:33.141Z,5.70
2023-05-05T08:58:08.600Z,5.70
2023-05-05T09:00:37.745Z,5.10
2023-05-05T09:03:15.028Z,5.78
2023-05-05T09:05:47.713Z,5.90
2023-05-05T09:08:19.895Z,5.70
2023-05-05T09:10:58.755Z,5.22
2023-05-05T09:13:27.191Z,5.85
2023-05-05T09:16:06.534Z,5.47
2023-05-05T09:18:42.598Z,5.40
2023-05-05T09:21:36.345Z,5.22
2023-05-05T09:24:24.145Z,5.18
2023-05-05T09:26:55.697Z,5.70
2023-05-05T09:29:27.734Z,5.43
2023-05-05T09:32:09.958Z,5.53
2023-05-05T09:34:40.643Z,5.82
2023-05-05T09:40:36.404Z,5.70
2023-05-05T09:43:11.616Z,5.43
2023-05-05T09:45:43.757Z,5.30
2023-05-05T09:48:28.623Z,5.60
2023-05-05T09:50:57.841Z,6.25
2023-05-05T09:56:11.190Z,5.40
2023-05-05T09:58:38.512Z,4.70
2023-05-05T10:01:05.437Z,4.30
2023-05-05T10:03:35.293Z,4.47
2023-05-05T10:06:05.425Z,4.57
2023-05-05T10:08:34.762Z,4.28
2023-05-05T10:11:07.489Z,4.05
2023-05-05T10:13:51.952Z,3.83
2023-05-05T10:16:30.813Z,3.47
2023-05-05T10:19:05.260Z,3.30
2023-05-05T10:24:46.253Z,3.25
2023-05-05T10:27:31.089Z,3.42
2023-05-05T10:30:15.557Z,2.88
2023-05-05T10:33:18.255Z,2.70
2023-05-05T10:36:00.377Z,2.97
2023-05-05T10:38:45.218Z,3.08
2023-05-05T10:41:16.466Z,2.60
2023-05-05T10:43:53.509Z,2.50
2023-05-05T10:46:29.156Z,2.35
2023-05-05T10:49:39.978Z,2.40
2023-05-05T10:52:23.501Z,2.03
2023-05-05T10:55:16.882Z,2.63
2023-05-05T11:03:44.930Z,1.85
2023-05-05T11:09:00.258Z,1.08
2023-05-05T11:14:26.699Z,0.90
2023-05-05T11:17:09.911Z,1.23
2023-05-05T11:19:57.060Z,1.15
2023-05-05T11:22:24.452Z,1.50
2023-05-05T11:24:53.541Z,1.42
2023-05-05T11:27:23.589Z,1.20
2023-05-05T11:36:37.567Z,0.80
2023-05-05T11:39:24.664Z,0.60
2023-05-05T11:45:28.392Z,0.70
2023-05-05T11:48:29.561Z,1.23
2023-05-05T12:00:13.074Z,0.80
2023-05-05T12:02:47.129Z,0.80
2023-05-05T12:05:28.443Z,0.55
2023-05-05T12:08:02.339Z,0.50
2023-05-05T12:10:29.591Z,0.63
2023-05-05T12:12:58.692Z,0.82
2023-05-05T12:15:34.535Z,0.40
2023-05-05T12:18:22.461Z,0.40
2023-05-05T12:20:52.398Z,0.60
2023-05-05T12:23:23.962Z,0.90
2023-05-05T12:25:51.727Z,0.68
2023-05-05T12:28:18.520Z,0.50
2023-05-05T12:33:44.306Z,0.80
2023-05-05T12:36:16.992Z,0.70
2023-05-05T12:38:46.358Z,0.50
2023-05-05T12:41:24.826Z,0.80
2023-05-05T12:43:56.766Z,0.65
2023-05-05T12:46:26.758Z,0.60
2023-05-05T12:49:08.238Z,0.70
2023-05-05T12:51:43.804Z,0.50
2023-05-05T12:54:24.909Z,0.93
2023-05-05T12:56:59.568Z,0.70
2023-05-05T12:59:35.350Z,0.70
2023-05-05T13:02:15.397Z,1.27
2023-05-05T13:04:56.537Z,1.00
2023-05-05T13:14:47.213Z,0.80
2023-05-05T13:17:29.683Z,0.85
2023-05-05T13:22:53.122Z,0.70
2023-05-05T13:25:23.160Z,1.10
2023-05-05T13:33:19.982Z,0.70
2023-05-05T13:38:45.806Z,0.63
2023-05-05T13:41:16.859Z,0.80
2023-05-05T13:43:48.313Z,0.88
2023-05-05T13:46:19.965Z,0.55
2023-05-05T13:48:56.040Z,0.60
2023-05-05T13:51:49.973Z,0.57
2023-05-05T14:10:22.679Z,0.60
2023-05-05T14:12:55.030Z,0.70
2023-05-05T14:21:09.090Z,0.68
2023-05-05T14:26:30.694Z,1.02
2023-05-05T14:29:04.552Z,1.20
2023-05-05T14:34:22.507Z,0.80
2023-05-05T14:36:50.075Z,0.80
2023-05-05T14:39:20.746Z,0.70
2023-05-05T14:41:51.866Z,0.60
2023-05-05T14:44:22.502Z,1.10
2023-05-05T14:49:44.296Z,0.77
2023-05-05T14:52:11.088Z,0.70
2023-05-05T14:54:40.373Z,0.80
2023-05-05T14:57:15.645Z,0.90
2023-05-05T14:59:49.731Z,0.70
2023-05-05T15:02:16.928Z,0.85
2023-05-05T15:04:44.170Z,0.88
2023-05-05T15:07:13.610Z,1.13
2023-05-05T15:09:44.816Z,0.63
2023-05-05T15:12:29.674Z,0.75
2023-05-05T15:14:57.071Z,0.90
2023-05-05T15:17:25.327Z,1.05
2023-05-05T15:19:52.120Z,0.90
2023-05-05T15:22:19.663Z,0.80
2023-05-05T15:24:46.890Z,0.70
2023-05-05T15:27:19.586Z,1.27
2023-05-05T15:29:50.793Z,2.00
2023-05-05T15:32:17.937Z,0.80
2023-05-05T15:34:50.183Z,0.70
2023-05-05T15:37:19.920Z,0.95
2023-05-05T15:39:47.139Z,0.65
2023-05-05T15:42:17.918Z,0.80
2023-05-05T15:44:45.242Z,0.57
2023-05-05T15:47:18.426Z,0.85
2023-05-05T15:49:52.218Z,0.70
2023-05-05T15:52:22.443Z,0.90
2023-05-05T15:54:49.459Z,1.00
2023-05-05T16:02:43.043Z,0.57
2023-05-05T16:05:10.887Z,0.60
2023-05-05T16:08:10.823Z,0.90
2023-05-05T16:10:38.196Z,1.10
2023-05-05T16:13:08.524Z,0.90
2023-05-05T16:15:41.700Z,1.23
2023-05-05T16:18:20.542Z,1.10
2023-05-05T16:20:47.560Z,1.42
2023-05-05T16:23:18.354Z,1.50
2023-05-05T16:30:46.682Z,0.80
2023-05-05T16:33:14.358Z,0.88
2023-05-05T16:36:10.784Z,1.73
2023-05-05T16:39:00.195Z,0.70
2023-05-05T16:41:47.182Z,1.48
2023-05-05T16:44:14.872Z,1.00
2023-05-05T16:46:49.759Z,0.85
2023-05-05T16:49:34.326Z,1.00
2023-05-05T16:52:02.289Z,1.02
2023-05-05T16:54:36.936Z,1.20
2023-05-05T16:57:06.079Z,1.42
2023-05-05T16:59:35.262Z,1.00
2023-05-05T17:02:06.047Z,1.60
2023-05-05T17:04:36.316Z,1.60
2023-05-05T17:07:06.882Z,1.73
2023-05-05T17:13:02.132Z,1.38
2023-05-05T17:15:33.470Z,1.30
2023-05-05T17:20:50.813Z,1.40
2023-05-05T17:31:58.212Z,2.35
2023-05-05T17:34:46.135Z,2.33
2023-05-05T17:40:06.060Z,1.55
2023-05-05T17:45:23.185Z,1.83
2023-05-05T17:48:07.338Z,1.70
2023-05-05T17:50:43.505Z,2.08
2023-05-05T17:53:14.414Z,2.08
2023-05-05T17:55:49.657Z,2.63
2023-05-05T17:58:32.460Z,2.17
2023-05-05T18:01:26.316Z,2.03
2023-05-05T18:03:57.083Z,2.28
2023-05-05T18:06:30.423Z,31.13
2023-05-05T18:09:00.260Z,11.38
2023-05-05T18:11:55.285Z,2.50
2023-05-05T18:14:26.060Z,3.40
2023-05-05T18:17:06.944Z,1.95
2023-05-05T18:19:35.015Z,1.70
2023-05-05T18:22:16.387Z,2.08
2023-05-05T18:24:46.773Z,2.42
2023-05-05T18:27:14.461Z,2.92
2023-05-05T18:29:43.890Z,4.25
2023-05-05T18:38:23.209Z,2.65
2023-05-05T18:40:53.361Z,2.60
2023-05-05T18:43:21.119Z,3.05
2023-05-05T18:58:37.658Z,2.35
2023-05-05T19:01:15.265Z,2.80
2023-05-05T19:10:27.356Z,2.60
2023-05-05T19:12:59.930Z,2.22
2023-05-05T19:15:34.194Z,2.70
2023-05-05T19:18:04.665Z,3.20
2023-05-05T19:23:23.567Z,2.70
2023-05-05T19:25:56.582Z,2.53
2023-05-05T19:31:11.828Z,2.10
2023-05-05T19:33:47.307Z,2.30
2023-05-05T19:36:23.153Z,3.00
2023-05-05T19:38:55.489Z,2.97
2023-05-05T19:41:31.506Z,2.97
2023-05-05T19:44:02.004Z,4.05
2023-05-05T19:48:58.443Z,3.92
2023-05-05T19:51:30.314Z,3.70
2023-05-05T19:53:57.440Z,2.60
2023-05-05T19:59:18.640Z,8.63
2023-05-05T20:01:49.992Z,10.93
2023-05-05T20:04:24.047Z,3.72
2023-05-05T20:07:00.260Z,3.50
2023-05-05T20:09:35.523Z,2.90
2023-05-05T20:12:06.172Z,2.58
2023-05-05T20:14:33.211Z,2.42
2023-05-05T20:17:04.239Z,1.73
2023-05-05T20:19:32.305Z,1.67
2023-05-05T20:22:07.867Z,2.50
2023-05-05T20:27:45.929Z,3.42
2023-05-05T20:30:15.371Z,2.72
2023-05-05T20:32:44.858Z,2.50
2023-05-05T20:35:13.092Z,3.33
2023-05-05T20:37:43.758Z,2.97
2023-05-05T20:42:54.693Z,2.20
2023-05-05T20:45:29.142Z,2.30
2023-05-05T20:48:05.346Z,2.38
2023-05-05T20:50:33.873Z,2.33
2023-05-05T20:53:03.336Z,3.88
2023-05-05T20:55:32.406Z,2.72
2023-05-05T20:58:11.249Z,2.20
2023-05-05T21:00:41.531Z,2.08
2023-05-05T21:03:12.734Z,2.20
2023-05-05T21:05:43.605Z,2.00
2023-05-05T21:08:21.750Z,2.47
2023-05-05T21:10:51.192Z,2.13
2023-05-05T21:13:29.482Z,2.70
2023-05-05T21:15:56.964Z,4.40
2023-05-05T21:18:34.598Z,2.67
2023-05-05T21:21:08.645Z,3.00
2023-05-05T21:23:38.403Z,2.08
2023-05-05T21:26:09.071Z,2.15
2023-05-05T21:28:39.105Z,2.00
2023-05-05T21:31:21.383Z,1.85
2023-05-05T21:36:34.489Z,1.67
2023-05-05T21:41:49.829Z,1.40
2023-05-05T21:44:20.681Z,1.60
2023-05-05T21:46:51.020Z,1.70
2023-05-05T21:52:02.470Z,1.60
2023-05-05T21:54:30.509Z,1.70
2023-05-05T21:56:58.482Z,1.40
2023-05-05T21:59:25.859Z,1.60
2023-05-05T22:01:58.644Z,1.40
2023-05-05T22:04:28.974Z,1.20
2023-05-05T22:06:56.607Z,1.60
2023-05-05T22:09:23.783Z,1.20
2023-05-05T22:14:44.403Z,1.35
2023-05-05T22:20:08.545Z,1.63
2023-05-05T22:22:36.134Z,2.28
2023-05-05T22:25:18.720Z,2.00
2023-05-05T22:27:50.517Z,1.70
2023-05-05T22:30:18.957Z,1.33
2023-05-05T22:32:49.981Z,1.50
2023-05-05T22:35:19.166Z,1.77
2023-05-05T22:37:49.016Z,1.77
2023-05-05T22:40:19.226Z,1.42
2023-05-05T22:42:54.894Z,1.70
2023-05-05T22:45:23.391Z,1.90
2023-05-05T22:50:34.407Z,2.00
2023-05-05T22:53:11.602Z,1.92
2023-05-05T22:55:43.186Z,1.70
2023-05-05T22:58:18.194Z,1.50
2023-05-05T23:00:47.357Z,1.50
2023-05-05T23:03:18.852Z,1.85
2023-05-05T23:05:48.037Z,1.60
2023-05-05T23:08:26.941Z,1.42
2023-05-05T23:10:54.567Z,1.38
2023-05-05T23:16:07.467Z,1.77
2023-05-05T23:18:36.429Z,1.30
2023-05-05T23:21:11.291Z,1.52
2023-05-05T23:23:43.388Z,1.50
2023-05-05T23:26:14.323Z,1.60
2023-05-05T23:28:46.483Z,1.63
2023-05-05T23:31:14.257Z,1.40
2023-05-05T23:36:37.220Z,1.50
2023-05-05T23:39:07.859Z,1.33
2023-05-05T23:41:35.740Z,1.58
2023-05-05T23:44:07.096Z,1.40
2023-05-05T23:46:34.467Z,1.58
2023-05-05T23:49:07.651Z,1.70
2023-05-05T23:51:37.186Z,1.80
2023-05-05T23:54:06.227Z,1.83
2023-05-05T23:56:35.943Z,1.95
2023-05-05T23:59:03.699Z,2.20
